createdAt,value
2022-09-07T00:04:49.014Z,89.93
2022-09-07T00:15:12.742Z,90.63
2022-09-07T00:25:39.113Z,90.17
2022-09-07T00:36:00.857Z,89.73
2022-09-07T00:46:26.023Z,91.09
2022-09-07T00:56:50.193Z,91.18
2022-09-07T01:07:11.832Z,89.24
2022-09-07T01:17:41.806Z,90.43
2022-09-07T01:28:13.846Z,90.75
2022-09-07T01:39:02.989Z,92.13
2022-09-07T01:49:35.152Z,91.73
2022-09-07T02:00:10.014Z,90.60
2022-09-07T02:10:31.511Z,90.18
2022-09-07T02:20:58.034Z,92.57
2022-09-07T02:31:20.021Z,91.59
2022-09-07T02:41:44.635Z,89.33
2022-09-07T02:52:09.145Z,87.29
2022-09-07T03:02:52.550Z,91.73
2022-09-07T03:13:26.578Z,100.00
2022-09-07T03:23:51.753Z,100.00
2022-09-07T03:34:13.844Z,100.00
2022-09-07T03:44:35.369Z,100.00
2022-09-07T03:54:56.941Z,100.00
2022-09-07T04:05:18.554Z,100.00
2022-09-07T04:15:40.068Z,100.00
2022-09-07T04:26:01.627Z,100.00
2022-09-07T04:36:24.849Z,100.00
2022-09-07T04:46:46.474Z,100.00
2022-09-07T04:57:09.859Z,100.00
2022-09-07T05:07:31.458Z,100.00
2022-09-07T05:17:53.039Z,100.00
2022-09-07T05:28:19.105Z,100.00
2022-09-07T05:38:41.061Z,100.00
2022-09-07T05:49:03.609Z,100.00
2022-09-07T05:59:25.137Z,100.00
2022-09-07T06:20:28.202Z,100.00
2022-09-07T06:30:49.726Z,100.00
2022-09-07T06:51:58.955Z,100.00
2022-09-07T07:02:20.498Z,100.00
2022-09-07T07:23:02.941Z,100.00
2022-09-07T07:33:25.268Z,100.00
2022-09-07T07:43:48.349Z,100.00
2022-09-07T07:54:09.864Z,100.00
2022-09-07T08:04:32.734Z,100.00
2022-09-07T08:14:54.223Z,100.00
2022-09-07T08:25:15.821Z,100.00
2022-09-07T08:35:37.285Z,100.00
2022-09-07T08:46:30.936Z,100.00
2022-09-07T09:07:53.063Z,95.86
2022-09-07T09:18:42.429Z,92.77
2022-09-07T09:29:20.238Z,92.25
2022-09-07T09:39:44.548Z,88.92
2022-09-07T09:52:29.237Z,89.74
2022-09-07T10:01:21.794Z,90.67
2022-09-07T10:12:09.580Z,88.20
2022-09-07T10:22:38.849Z,90.94
2022-09-07T10:33:09.111Z,84.06
2022-09-07T10:43:42.224Z,83.78
2022-09-07T10:54:30.876Z,84.09
2022-09-07T11:05:17.748Z,84.32
2022-09-07T11:15:49.487Z,83.66
2022-09-07T11:26:23.319Z,84.69
2022-09-07T11:36:58.466Z,82.86
2022-09-07T11:47:41.783Z,81.99
2022-09-07T11:58:09.268Z,80.55
2022-09-07T12:08:40.724Z,82.90
2022-09-07T12:19:24.591Z,82.38
2022-09-07T12:30:10.357Z,78.49
2022-09-07T12:40:33.420Z,78.89
2022-09-07T13:02:10.385Z,78.54
2022-09-07T13:13:00.370Z,77.42
2022-09-07T13:23:25.733Z,78.04
2022-09-07T13:33:50.362Z,77.01
2022-09-07T13:44:25.218Z,76.52
2022-09-07T13:54:59.350Z,74.66
2022-09-07T14:05:22.443Z,72.86
2022-09-07T14:15:47.511Z,74.41
2022-09-07T14:26:23.218Z,72.86
2022-09-07T14:36:46.993Z,74.80
2022-09-07T14:47:18.954Z,74.19
2022-09-07T14:57:40.630Z,72.92
2022-09-07T15:08:03.310Z,71.78
2022-09-07T15:18:56.543Z,69.90
2022-09-07T15:29:22.311Z,69.60
2022-09-07T15:39:44.614Z,70.23
2022-09-07T15:50:07.282Z,68.22
2022-09-07T16:00:30.600Z,68.90
2022-09-07T16:10:54.154Z,71.78
2022-09-07T16:21:16.718Z,71.64
2022-09-07T16:31:38.508Z,71.15
2022-09-07T16:42:00.442Z,71.32
2022-09-07T16:52:23.271Z,76.30
2022-09-07T17:02:44.713Z,71.41
2022-09-07T17:13:09.269Z,74.42
2022-09-07T17:23:31.982Z,74.83
2022-09-07T17:33:59.077Z,78.26
2022-09-07T17:44:22.536Z,81.23
2022-09-07T17:54:43.975Z,81.23
2022-09-07T18:05:07.094Z,80.25
2022-09-07T18:15:28.822Z,83.43
2022-09-07T18:25:57.702Z,85.18
2022-09-07T18:36:19.624Z,88.82
2022-09-07T18:46:41.171Z,88.66
2022-09-07T18:57:02.671Z,88.54
2022-09-07T19:07:29.002Z,90.06
2022-09-07T19:17:51.580Z,89.79
2022-09-07T19:28:13.054Z,93.48
2022-09-07T19:38:35.129Z,92.87
2022-09-07T19:48:56.674Z,93.65
2022-09-07T19:59:19.575Z,93.58
2022-09-07T20:09:41.095Z,92.41
2022-09-07T20:20:02.871Z,93.87
2022-09-07T20:30:24.370Z,94.57
2022-09-07T20:40:57.955Z,93.97
2022-09-07T20:51:21.249Z,93.62
2022-09-07T21:01:42.852Z,95.62
2022-09-07T21:12:04.486Z,94.78
2022-09-07T21:22:25.988Z,95.21
2022-09-07T21:32:51.764Z,96.72
2022-09-07T21:43:13.296Z,97.41
2022-09-07T21:53:35.377Z,97.50
2022-09-07T22:03:59.460Z,97.96
2022-09-07T22:14:21.078Z,99.66
2022-09-07T22:24:42.539Z,100.00
2022-09-07T22:35:04.247Z,100.00
2022-09-07T22:45:25.694Z,100.00
2022-09-07T22:55:47.143Z,100.00
2022-09-07T23:06:17.239Z,100.00
2022-09-07T23:16:39.106Z,100.00
2022-09-07T23:27:00.733Z,100.00
2022-09-07T23:37:22.320Z,100.00
2022-09-07T23:47:44.039Z,100.00
2022-09-07T23:58:06.367Z,100.00
